createdAt,value
2019-01-21T00:03:56.987Z,101906.16
2019-01-21T00:06:47.705Z,101908.78
2019-01-21T00:09:17.085Z,101906.14
2019-01-21T00:11:46.429Z,101908.32
2019-01-21T00:14:16.060Z,101900.40
2019-01-21T00:16:45.398Z,101900.41
2019-01-21T00:19:14.940Z,101914.39
2019-01-21T00:21:44.283Z,101914.36
2019-01-21T00:24:34.842Z,101914.36
2019-01-21T00:27:04.251Z,101914.33
2019-01-21T00:29:33.907Z,101913.44
2019-01-21T00:32:03.587Z,101912.55
2019-01-21T00:34:33.235Z,101903.82
2019-01-21T00:37:24.981Z,101903.81
2019-01-21T00:39:54.335Z,101898.13
2019-01-21T00:42:25.293Z,101902.92
2019-01-21T00:44:54.946Z,101900.72
2019-01-21T00:47:30.151Z,101903.34
2019-01-21T00:50:01.111Z,101905.97
2019-01-21T00:52:30.564Z,101900.69
2019-01-21T00:55:00.030Z,101904.63
2019-01-21T00:57:29.374Z,101902.02
2019-01-21T00:59:59.038Z,101908.53
2019-01-21T01:02:28.667Z,101902.84
2019-01-21T01:07:38.692Z,101912.41
2019-01-21T01:13:10.302Z,101910.23
2019-01-21T01:15:39.960Z,101913.30
2019-01-21T01:18:21.824Z,101918.52
2019-01-21T01:20:51.284Z,101922.89
2019-01-21T01:26:00.448Z,101929.45
2019-01-21T01:28:31.406Z,101929.42
2019-01-21T01:31:01.065Z,101929.83
2019-01-21T01:33:51.663Z,101934.18
2019-01-21T01:36:21.589Z,101931.11
2019-01-21T01:39:10.311Z,101936.77
2019-01-21T01:41:39.689Z,101930.66
2019-01-21T01:44:09.456Z,101933.70
2019-01-21T01:46:39.103Z,101939.39
2019-01-21T01:49:08.437Z,101934.11
2019-01-21T01:51:43.200Z,101923.55
2019-01-21T01:54:12.540Z,101940.21
2019-01-21T01:56:42.880Z,101937.55
2019-01-21T01:59:19.569Z,101939.77
2019-01-21T02:01:49.504Z,101941.48
2019-01-21T02:08:12.655Z,101931.86
2019-01-21T02:10:43.865Z,101927.89
2019-01-21T02:13:13.616Z,101933.58
2019-01-21T02:15:43.270Z,101931.82
2019-01-21T02:21:13.597Z,101929.20
2019-01-21T02:30:27.779Z,101928.67
2019-01-21T02:33:35.954Z,101917.70
2019-01-21T02:39:46.055Z,101912.38
2019-01-21T02:45:56.010Z,101910.61
2019-01-21T02:49:04.247Z,101920.19
2019-01-21T02:52:12.328Z,101920.19
2019-01-21T02:58:55.040Z,101915.85
2019-01-21T03:02:06.211Z,101912.38
2019-01-21T03:05:14.593Z,101907.14
2019-01-21T03:08:23.015Z,101898.01
2019-01-21T03:11:31.081Z,101900.59
2019-01-21T03:14:39.140Z,101901.45
2019-01-21T03:17:48.555Z,101890.93
2019-01-21T03:20:56.597Z,101891.78
2019-01-21T03:24:04.913Z,101895.22
2019-01-21T03:27:13.298Z,101895.62
2019-01-21T03:30:22.975Z,101893.45
2019-01-21T03:39:35.490Z,101892.59
2019-01-21T03:42:44.923Z,101882.53
2019-01-21T03:48:36.972Z,101890.42
2019-01-21T03:51:45.160Z,101896.98
2019-01-21T03:57:37.460Z,101894.36
2019-01-21T04:00:45.540Z,101890.42
2019-01-21T04:13:00.680Z,101880.32
2019-01-21T04:16:10.162Z,101880.73
2019-01-21T04:19:00.882Z,101882.03
2019-01-21T04:22:09.251Z,101878.02
2019-01-21T04:24:59.764Z,101875.30
2019-01-21T04:28:10.249Z,101871.78
2019-01-21T04:37:16.751Z,101866.50
2019-01-21T04:40:08.585Z,101867.86
2019-01-21T04:46:03.782Z,101867.91
2019-01-21T04:48:56.773Z,101867.45
2019-01-21T04:52:09.663Z,101871.83
2019-01-21T04:54:59.922Z,101858.73
2019-01-21T04:57:52.319Z,101853.42
2019-01-21T05:01:10.812Z,101852.55
2019-01-21T05:04:05.038Z,101859.50
2019-01-21T05:09:36.646Z,101856.02
2019-01-21T05:12:47.810Z,101853.37
2019-01-21T05:15:58.742Z,101840.23
2019-01-21T05:19:12.322Z,101851.60
2019-01-21T05:22:02.666Z,101851.15
2019-01-21T05:24:52.934Z,101842.00
2019-01-21T05:31:35.721Z,101847.68
2019-01-21T05:34:45.117Z,101848.13
2019-01-21T05:44:16.374Z,101839.63
2019-01-21T05:47:09.686Z,101841.69
2019-01-21T05:53:20.515Z,101847.97
2019-01-21T05:56:29.963Z,101848.72
2019-01-21T05:59:38.328Z,101857.37
2019-01-21T06:02:48.150Z,101867.27
2019-01-21T06:08:58.892Z,101857.94
2019-01-21T06:12:08.754Z,101857.89
2019-01-21T06:15:16.819Z,101859.14
2019-01-21T06:18:25.134Z,101861.72
2019-01-21T06:21:33.720Z,101866.91
2019-01-21T06:24:43.119Z,101862.11
2019-01-21T06:33:56.982Z,101882.95
2019-01-21T06:37:06.731Z,101888.63
2019-01-21T06:40:15.103Z,101891.25
2019-01-21T06:46:25.692Z,101890.74
2019-01-21T06:49:33.756Z,101889.38
2019-01-21T06:52:43.169Z,101885.45
2019-01-21T06:55:51.531Z,101884.55
2019-01-21T06:59:00.994Z,101897.64
2019-01-21T07:02:09.338Z,101894.16
2019-01-21T07:14:43.786Z,101892.40
2019-01-21T07:17:52.035Z,101891.54
2019-01-21T07:27:07.072Z,101892.00
2019-01-21T07:29:50.213Z,101882.33
2019-01-21T07:32:59.905Z,101882.33
2019-01-21T07:39:23.454Z,101886.21
2019-01-21T07:42:31.723Z,101892.34
2019-01-21T07:45:41.592Z,101898.53
2019-01-21T07:48:56.514Z,101905.08
2019-01-21T07:51:57.181Z,101912.13
2019-01-21T07:55:05.767Z,101902.53
2019-01-21T08:01:10.347Z,101919.23
2019-01-21T08:04:18.457Z,101922.77
2019-01-21T08:07:26.764Z,101931.53
2019-01-21T08:13:55.235Z,101934.34
2019-01-21T08:20:06.092Z,101920.91
2019-01-21T08:23:15.495Z,101920.91
2019-01-21T08:32:45.703Z,101907.61
2019-01-21T08:35:55.146Z,101903.21
2019-01-21T08:45:08.201Z,101884.73
2019-01-21T08:48:17.665Z,101880.63
2019-01-21T08:51:08.023Z,101872.25
2019-01-21T08:53:58.341Z,101884.59
2019-01-21T08:56:48.906Z,101900.30
2019-01-21T09:02:47.473Z,101896.41
2019-01-21T09:08:42.789Z,101895.75
2019-01-21T09:14:35.102Z,101890.23
2019-01-21T09:17:44.283Z,101871.14
2019-01-21T09:20:37.240Z,101864.64
2019-01-21T09:23:45.541Z,101860.48
2019-01-21T09:26:38.787Z,101858.83
2019-01-21T09:29:29.115Z,101849.30
2019-01-21T09:32:37.176Z,101857.53
2019-01-21T09:35:45.233Z,101857.28
2019-01-21T09:38:53.286Z,101862.14
2019-01-21T09:42:01.343Z,101878.08
2019-01-21T09:47:31.455Z,101875.23
2019-01-21T09:50:01.081Z,101864.96
2019-01-21T09:52:32.201Z,101864.96
2019-01-21T09:55:01.705Z,101865.34
2019-01-21T10:00:33.402Z,101852.50
2019-01-21T10:03:42.804Z,101860.02
2019-01-21T10:09:45.238Z,101862.95
2019-01-21T10:16:06.272Z,101856.43
2019-01-21T10:19:14.315Z,101856.03
2019-01-21T10:22:22.553Z,101846.91
2019-01-21T10:25:13.458Z,101843.67
2019-01-21T10:28:22.889Z,101846.65
2019-01-21T10:31:31.199Z,101830.83
2019-01-21T10:34:39.262Z,101835.34
2019-01-21T10:37:47.559Z,101826.59
2019-01-21T10:40:57.700Z,101822.08
2019-01-21T10:44:05.766Z,101816.92
2019-01-21T10:47:13.822Z,101814.97
2019-01-21T10:50:22.894Z,101819.95
2019-01-21T10:53:04.788Z,101804.62
2019-01-21T10:56:14.068Z,101804.62
2019-01-21T11:05:37.190Z,101790.05
2019-01-21T11:08:45.718Z,101785.03
2019-01-21T11:11:55.092Z,101787.30
2019-01-21T11:21:09.335Z,101779.17
2019-01-21T11:24:17.637Z,101779.17
2019-01-21T11:30:27.772Z,101777.31
2019-01-21T11:33:37.454Z,101761.63
2019-01-21T11:39:47.441Z,101753.38
2019-01-21T11:42:58.745Z,101753.38
2019-01-21T11:46:06.791Z,101751.20
2019-01-21T11:49:16.184Z,101737.88
2019-01-21T11:55:18.803Z,101728.89
2019-01-21T11:58:26.929Z,101726.08
2019-01-21T12:01:36.302Z,101723.62
2019-01-21T12:04:26.801Z,101732.34
2019-01-21T12:07:34.879Z,101732.34
2019-01-21T12:10:42.958Z,101724.33
2019-01-21T12:13:52.456Z,101704.68
2019-01-21T12:17:01.999Z,101711.50
2019-01-21T12:42:52.150Z,101678.18
2019-01-21T12:46:01.566Z,101672.02
2019-01-21T12:49:11.236Z,101676.03
2019-01-21T12:52:19.817Z,101671.81
2019-01-21T12:55:28.903Z,101654.58
2019-01-21T13:01:38.790Z,101669.66
2019-01-21T13:04:48.238Z,101671.53
2019-01-21T13:11:16.975Z,101668.39
2019-01-21T13:14:25.042Z,101657.47
2019-01-21T13:21:03.279Z,101653.43
2019-01-21T13:24:12.426Z,101649.95
2019-01-21T13:33:36.643Z,101637.51
2019-01-21T13:43:10.331Z,101627.17
2019-01-21T13:46:18.388Z,101625.13
2019-01-21T13:49:19.189Z,101626.95
2019-01-21T13:52:28.378Z,101626.80
2019-01-21T13:55:57.276Z,101625.89
2019-01-21T13:59:05.348Z,101631.02
2019-01-21T14:02:15.594Z,101626.45
2019-01-21T14:11:20.465Z,101605.17
2019-01-21T14:14:28.761Z,101607.82
2019-01-21T14:17:22.121Z,101601.49
2019-01-21T14:20:30.187Z,101601.49
2019-01-21T14:23:25.281Z,101590.73
2019-01-21T14:26:30.760Z,101591.02
2019-01-21T14:32:55.819Z,101587.55
2019-01-21T14:36:05.613Z,101581.96
2019-01-21T14:39:13.952Z,101576.21
2019-01-21T14:42:22.028Z,101567.97
2019-01-21T14:45:30.084Z,101568.50
2019-01-21T14:48:38.139Z,101576.45
2019-01-21T14:51:46.206Z,101579.50
2019-01-21T14:58:07.597Z,101563.56
2019-01-21T15:01:15.963Z,101557.89
2019-01-21T15:04:25.594Z,101557.28
2019-01-21T15:16:39.243Z,101543.36
2019-01-21T15:22:31.869Z,101535.86
2019-01-21T18:12:42.701Z,101482.25
2019-01-21T18:15:32.952Z,101487.45
2019-01-21T18:18:02.588Z,101484.79
2019-01-21T18:20:31.987Z,101481.19
2019-01-21T18:23:20.661Z,101476.16
2019-01-21T18:25:50.014Z,101476.16
2019-01-21T18:28:39.316Z,101474.84
2019-01-21T18:31:09.087Z,101474.84
2019-01-21T18:33:58.057Z,101478.23
2019-01-21T18:36:27.706Z,101478.23
2019-01-21T18:38:57.415Z,101478.17
2019-01-21T18:41:27.061Z,101472.88
2019-01-21T18:43:56.738Z,101469.37
2019-01-21T18:46:26.331Z,101469.27
2019-01-21T18:48:56.705Z,101477.98
2019-01-21T18:51:26.524Z,101468.65
2019-01-21T18:53:56.863Z,101474.05
2019-01-21T18:56:26.394Z,101470.33
2019-01-21T18:58:56.087Z,101462.91
2019-01-21T19:01:25.739Z,101460.28
2019-01-21T19:03:55.448Z,101463.96
2019-01-21T19:06:25.137Z,101459.67
2019-01-21T19:08:54.464Z,101458.77
2019-01-21T19:11:24.540Z,101461.44
2019-01-21T19:14:14.998Z,101457.88
2019-01-21T19:16:46.330Z,101455.16
2019-01-21T19:19:15.679Z,101454.20
2019-01-21T19:21:45.266Z,101458.22
2019-01-21T19:24:14.903Z,101455.89
2019-01-21T19:26:44.249Z,101464.26
2019-01-21T19:29:13.858Z,101460.99
2019-01-21T19:31:43.205Z,101457.33
2019-01-21T19:34:12.537Z,101452.57
2019-01-21T19:36:42.190Z,101435.20
2019-01-21T19:39:11.527Z,101451.42
2019-01-21T19:41:42.536Z,101451.00
2019-01-21T19:44:12.121Z,101450.52
2019-01-21T19:46:44.206Z,101454.91
2019-01-21T19:49:18.406Z,101452.26
2019-01-21T19:51:48.050Z,101456.01
2019-01-21T19:54:40.306Z,101450.92
2019-01-21T19:57:09.658Z,101447.11
2019-01-21T19:59:39.509Z,101445.25
2019-01-21T20:02:08.911Z,101442.60
2019-01-21T20:04:38.805Z,101432.10
2019-01-21T20:07:08.332Z,101432.28
2019-01-21T20:12:32.508Z,101443.45
2019-01-21T20:15:02.242Z,101439.42
2019-01-21T20:20:46.325Z,101439.95
2019-01-21T20:23:15.671Z,101431.87
2019-01-21T20:25:45.402Z,101434.41
2019-01-21T20:28:14.760Z,101438.73
2019-01-21T20:30:44.252Z,101444.45
2019-01-21T20:33:13.598Z,101433.06
2019-01-21T20:35:43.244Z,101429.58
2019-01-21T20:38:12.595Z,101427.42
2019-01-21T20:40:42.241Z,101430.07
2019-01-21T20:43:12.339Z,101431.27
2019-01-21T20:45:41.676Z,101425.05
2019-01-21T20:48:11.327Z,101420.72
2019-01-21T20:50:40.977Z,101414.99
2019-01-21T20:53:10.386Z,101416.81
2019-01-21T20:55:39.722Z,101409.33
2019-01-21T21:58:43.336Z,101374.12
2019-01-21T22:01:12.679Z,101369.73
2019-01-21T22:03:42.628Z,101375.92
2019-01-21T22:06:11.968Z,101369.72
2019-01-21T22:08:41.567Z,101367.92
2019-01-21T22:11:10.939Z,101366.09
2019-01-21T22:13:52.701Z,101359.19
2019-01-21T22:16:22.355Z,101359.19
2019-01-21T22:18:51.700Z,101360.98
2019-01-21T22:21:21.064Z,101348.51
2019-01-21T22:23:50.701Z,101343.98
2019-01-21T22:26:20.044Z,101348.24
2019-01-21T22:28:49.558Z,101341.09
2019-01-21T22:31:18.911Z,101340.95
2019-01-21T22:33:48.564Z,101338.77
2019-01-21T22:36:17.904Z,101331.37
2019-01-21T22:38:47.577Z,101328.49
2019-01-21T22:41:16.920Z,101328.49
2019-01-21T22:43:46.579Z,101331.14
2019-01-21T22:46:16.223Z,101324.90
2019-01-21T22:48:45.946Z,101320.06
2019-01-21T22:51:15.594Z,101322.64
2019-01-21T22:53:44.964Z,101316.02
2019-01-21T22:56:14.589Z,101311.13
2019-01-21T22:58:44.269Z,101305.71
